createdAt,value
2019-04-07T00:00:01.221Z,80.78
2019-04-07T00:01:01.219Z,80.95
2019-04-07T00:02:01.249Z,81.26
2019-04-07T00:03:01.371Z,80.77
2019-04-07T00:04:05.388Z,80.77
2019-04-07T00:05:15.002Z,80.93
2019-04-07T00:06:01.228Z,81.23
2019-04-07T00:07:01.440Z,80.59
2019-04-07T00:08:01.713Z,80.72
2019-04-07T00:09:01.807Z,80.38
2019-04-07T00:10:01.908Z,80.47
2019-04-07T00:11:01.480Z,80.17
2019-04-07T00:12:01.247Z,80.19
2019-04-07T00:13:01.304Z,80.14
2019-04-07T00:14:01.226Z,80.18
2019-04-07T00:15:01.227Z,80.03
2019-04-07T00:16:02.134Z,80.36
2019-04-07T00:17:01.907Z,80.11
2019-04-07T00:18:01.172Z,80.23
2019-04-07T00:19:01.745Z,80.04
2019-04-07T00:20:01.246Z,80.21
2019-04-07T00:21:01.658Z,79.86
2019-04-07T00:22:01.183Z,80.56
2019-04-07T00:23:01.214Z,80.4
2019-04-07T00:24:02.597Z,80.39
2019-04-07T00:25:02.679Z,81.36
2019-04-07T00:26:02.366Z,81.35
2019-04-07T00:27:01.494Z,81.41
2019-04-07T00:28:01.196Z,81.46
2019-04-07T00:29:01.808Z,81.28
2019-04-07T00:30:02.276Z,81.23
2019-04-07T00:31:02.595Z,81.52
2019-04-07T00:32:01.220Z,81.71
2019-04-07T00:33:01.803Z,81.45
2019-04-07T00:34:01.736Z,81.99
2019-04-07T00:35:01.189Z,81.71
2019-04-07T00:36:01.185Z,81.82
2019-04-07T00:37:01.245Z,81.24
2019-04-07T00:38:02.328Z,81.61
2019-04-07T00:39:01.673Z,81.63
2019-04-07T00:40:01.206Z,80.99
2019-04-07T00:41:01.519Z,81.78
2019-04-07T00:42:01.933Z,81.52
2019-04-07T00:43:01.169Z,81.05
2019-04-07T00:44:01.716Z,81.47
2019-04-07T00:45:01.191Z,81.14
2019-04-07T00:46:01.473Z,81.09
2019-04-07T00:47:01.137Z,81.11
2019-04-07T00:48:01.491Z,81.21
2019-04-07T00:49:03.026Z,80.94
2019-04-07T00:50:01.603Z,81.02
2019-04-07T00:51:01.605Z,80.61
2019-04-07T00:52:01.351Z,80.69
2019-04-07T00:53:01.404Z,80.67
2019-04-07T00:54:01.129Z,80.83
2019-04-07T00:55:02.380Z,80.74
2019-04-07T00:56:01.406Z,80.77
2019-04-07T00:57:01.156Z,80.58
2019-04-07T00:58:01.202Z,81.44
2019-04-07T00:59:02.936Z,81.29
2019-04-07T01:00:01.833Z,81.36
2019-04-07T01:01:01.143Z,80.87
2019-04-07T01:02:01.573Z,80.68
2019-04-07T01:03:02.033Z,80.69
2019-04-07T01:04:01.260Z,80.72
2019-04-07T01:05:02.636Z,80.61
2019-04-07T01:06:01.304Z,80.72
2019-04-07T01:07:01.132Z,80.81
2019-04-07T01:08:01.867Z,81.11
2019-04-07T01:09:01.898Z,81.17
2019-04-07T01:10:03.528Z,80.92
2019-04-07T01:11:01.474Z,80.98
2019-04-07T01:12:01.240Z,81.37
2019-04-07T01:13:01.167Z,81.7
2019-04-07T01:14:01.696Z,81.63
2019-04-07T01:15:01.142Z,81.39
2019-04-07T01:16:01.488Z,81.28
2019-04-07T01:17:01.129Z,81.31
2019-04-07T01:18:01.248Z,81.15
2019-04-07T01:19:01.098Z,81.21
2019-04-07T01:20:01.278Z,81.33
2019-04-07T01:21:02.328Z,81.14
2019-04-07T01:22:01.271Z,81.24
2019-04-07T01:23:02.997Z,81.19
2019-04-07T01:24:01.148Z,81.24
2019-04-07T01:25:01.191Z,81.14
2019-04-07T01:26:01.135Z,81.2
2019-04-07T01:27:01.092Z,81.21
2019-04-07T01:28:01.101Z,81.3
2019-04-07T01:29:01.600Z,81.25
2019-04-07T01:30:01.254Z,81.34
2019-04-07T01:31:01.108Z,81.46
2019-04-07T01:32:01.106Z,81.84
2019-04-07T01:33:01.103Z,81.52
2019-04-07T01:34:01.154Z,81.34
2019-04-07T01:35:01.437Z,81.23
2019-04-07T01:36:01.116Z,81.38
2019-04-07T01:37:01.171Z,81.61
2019-04-07T01:38:01.691Z,81.28
2019-04-07T01:39:01.666Z,81.17
2019-04-07T01:40:03.226Z,81.66
2019-04-07T01:41:01.102Z,81.7
2019-04-07T01:42:01.788Z,81.75
2019-04-07T01:43:01.195Z,81.23
2019-04-07T01:44:01.124Z,81.91
2019-04-07T01:45:01.743Z,81.62
2019-04-07T01:46:01.305Z,81.39
2019-04-07T01:47:01.497Z,81.25
2019-04-07T01:48:01.190Z,81.37
2019-04-07T01:49:01.178Z,81.5
2019-04-07T01:50:01.078Z,81.5
2019-04-07T01:51:01.595Z,81.21
2019-04-07T01:52:01.124Z,81.85
2019-04-07T01:53:01.097Z,82.4
2019-04-07T01:54:01.050Z,82.81
2019-04-07T01:55:01.109Z,82.29
2019-04-07T01:56:01.912Z,82.27
2019-04-07T01:57:01.508Z,81.94
2019-04-07T01:58:01.063Z,82.27
2019-04-07T01:59:01.701Z,82.28
2019-04-07T02:00:02.014Z,82.09
2019-04-07T02:01:01.072Z,82.35
2019-04-07T02:02:02.208Z,82.21
2019-04-07T02:03:01.123Z,82.09
2019-04-07T02:04:01.858Z,82.47
2019-04-07T02:05:01.056Z,82.31
2019-04-07T02:06:06.957Z,82.19
2019-04-07T02:07:01.067Z,82.23
2019-04-07T02:08:01.447Z,82.16
2019-04-07T02:09:02.005Z,82.69
2019-04-07T02:10:01.056Z,82.96
2019-04-07T02:11:01.448Z,82.57
2019-04-07T02:12:02.586Z,83.09
2019-04-07T02:13:01.252Z,83.12
2019-04-07T02:14:01.111Z,83.17
2019-04-07T02:15:01.117Z,83.05
2019-04-07T02:16:01.017Z,82.83
2019-04-07T02:17:01.045Z,82.42
2019-04-07T02:18:01.035Z,83
2019-04-07T02:19:01.064Z,82.91
2019-04-07T02:20:01.458Z,83.09
2019-04-07T02:21:00.996Z,82.96
2019-04-07T02:22:01.026Z,83.13
2019-04-07T02:23:01.008Z,83.11
2019-04-07T02:24:03.792Z,82.86
2019-04-07T02:25:01.787Z,83.02
2019-04-07T02:26:01.031Z,83.25
2019-04-07T02:27:01.042Z,83.04
2019-04-07T02:28:01.209Z,83.22
2019-04-07T02:29:01.703Z,82.95
2019-04-07T02:30:00.999Z,82.86
2019-04-07T02:31:01.122Z,82.73
2019-04-07T02:32:01.713Z,82.55
2019-04-07T02:33:02.425Z,82.69
2019-04-07T02:34:01.027Z,82.78
2019-04-07T02:35:01.922Z,82.71
2019-04-07T02:36:31.129Z,82.55
2019-04-07T02:37:01.050Z,82.29
2019-04-07T02:38:02.421Z,82.13
2019-04-07T02:39:01.212Z,82.35
2019-04-07T02:40:04.936Z,82.2
2019-04-07T02:41:02.062Z,82.46
2019-04-07T02:42:01.039Z,82.78
2019-04-07T02:43:03.338Z,82.77
2019-04-07T02:44:02.986Z,82.4
2019-04-07T02:45:01.667Z,82.86
2019-04-07T02:46:01.022Z,82.74
2019-04-07T02:47:01.033Z,82.65
2019-04-07T02:48:01.500Z,82.84
2019-04-07T02:49:02.018Z,82.74
2019-04-07T02:50:03.632Z,82.97
2019-04-07T02:51:01.443Z,83.07
2019-04-07T02:52:01.007Z,83.07
2019-04-07T02:53:02.592Z,82.73
2019-04-07T02:54:00.994Z,82.5
2019-04-07T02:55:02.778Z,82.44
2019-04-07T02:56:02.312Z,82.2
2019-04-07T02:57:00.985Z,82.31
2019-04-07T02:58:03.044Z,82.53
2019-04-07T02:59:02.016Z,82.33
2019-04-07T03:00:01.372Z,82.04
2019-04-07T03:01:02.227Z,82.07
2019-04-07T03:02:01.247Z,81.97
2019-04-07T03:03:01.876Z,82.34
2019-04-07T03:04:05.190Z,82.95
2019-04-07T03:05:02.476Z,82.73
2019-04-07T03:06:02.195Z,82.77
2019-04-07T03:07:00.998Z,83.2
2019-04-07T03:08:01.821Z,83.61
2019-04-07T03:09:00.957Z,83.15
2019-04-07T03:10:01.060Z,82.95
2019-04-07T03:11:02.261Z,82.8
2019-04-07T03:12:05.312Z,82.67
2019-04-07T03:13:01.284Z,82.76
2019-04-07T03:14:00.977Z,82.82
2019-04-07T03:15:00.982Z,83.02
2019-04-07T03:16:02.287Z,83.25
2019-04-07T03:17:02.459Z,83.44
2019-04-07T03:18:01.047Z,83.65
2019-04-07T03:19:01.839Z,83.36
2019-04-07T03:20:00.959Z,83.52
2019-04-07T03:21:02.537Z,83.64
2019-04-07T03:22:01.302Z,83.5
2019-04-07T03:23:00.949Z,83.61
2019-04-07T03:24:00.972Z,83.51
2019-04-07T03:25:00.942Z,83.38
2019-04-07T03:26:02.398Z,83.47
2019-04-07T03:27:01.079Z,83.2
2019-04-07T03:28:01.348Z,83.24
2019-04-07T03:29:01.501Z,83.15
2019-04-07T03:30:03.707Z,83.31
2019-04-07T03:31:06.918Z,82.82
2019-04-07T03:32:08.410Z,82.72
2019-04-07T03:33:14.055Z,82.64
2019-04-07T03:34:06.697Z,82.58
2019-04-07T03:35:06.550Z,82.53
2019-04-07T03:36:11.627Z,82.33
2019-04-07T03:37:44.583Z,82.34
2019-04-07T03:38:02.157Z,82.44
2019-04-07T03:39:03.478Z,82.52
2019-04-07T03:40:04.738Z,82.68
2019-04-07T03:41:00.940Z,82.71
2019-04-07T03:42:01.282Z,82.62
2019-04-07T03:43:01.785Z,82.76
2019-04-07T03:44:01.544Z,83.14
2019-04-07T03:45:01.345Z,83.41
2019-04-07T03:46:01.153Z,83.49
2019-04-07T03:47:01.718Z,83.45
2019-04-07T03:48:02.391Z,83.5
2019-04-07T03:49:02.130Z,83.42
2019-04-07T03:50:03.968Z,83.36
2019-04-07T03:51:01.736Z,83.43
2019-04-07T03:52:05.665Z,83.58
2019-04-07T03:53:03.087Z,83.47
2019-04-07T03:54:00.961Z,83.58
2019-04-07T03:55:01.567Z,83.67
2019-04-07T03:56:01.969Z,83.59
2019-04-07T03:57:00.990Z,83.51
2019-04-07T03:58:01.805Z,83.65
2019-04-07T03:59:00.898Z,83.7
2019-04-07T04:00:02.565Z,83.83
2019-04-07T04:01:00.955Z,83.79
2019-04-07T04:02:01.076Z,83.86
2019-04-07T04:03:00.887Z,83.7
2019-04-07T04:04:02.412Z,83.65
2019-04-07T04:05:01.075Z,83.5
2019-04-07T04:06:00.897Z,83.28
2019-04-07T04:07:34.856Z,83.4
2019-04-07T04:08:02.234Z,83.47
2019-04-07T04:09:02.298Z,83.34
2019-04-07T04:10:01.372Z,83.29
2019-04-07T04:11:01.700Z,83.27
2019-04-07T04:12:01.544Z,83.26
2019-04-07T04:13:01.175Z,83.41
2019-04-07T04:14:03.068Z,83.2
2019-04-07T04:15:03.748Z,83.13
2019-04-07T04:16:01.181Z,83.24
2019-04-07T04:17:02.296Z,83.31
2019-04-07T04:18:01.348Z,83.23
2019-04-07T04:19:00.900Z,83.29
2019-04-07T04:20:00.882Z,83.23
2019-04-07T04:21:01.652Z,83.4
2019-04-07T04:22:02.332Z,83.41
2019-04-07T04:23:00.953Z,83.41
2019-04-07T04:24:00.913Z,83.36
2019-04-07T04:25:01.469Z,83.31
2019-04-07T04:26:02.631Z,83.32
2019-04-07T04:27:01.137Z,83.23
2019-04-07T04:28:01.572Z,83.07
2019-04-07T04:29:04.148Z,83.39
2019-04-07T04:30:01.129Z,83.35
2019-04-07T04:31:00.967Z,83.1
2019-04-07T04:32:01.823Z,83.15
2019-04-07T04:33:02.430Z,83.17
2019-04-07T04:34:01.985Z,82.88
2019-04-07T04:35:01.204Z,82.8
2019-04-07T04:36:00.857Z,82.56
2019-04-07T04:37:01.977Z,82.45
2019-04-07T04:38:02.244Z,83
2019-04-07T04:39:00.943Z,82.89
2019-04-07T04:40:03.935Z,82.82
2019-04-07T04:41:03.142Z,82.98
2019-04-07T04:42:01.119Z,83.16
2019-04-07T04:43:02.965Z,82.91
2019-04-07T04:44:00.847Z,82.69
2019-04-07T04:45:02.765Z,82.64
2019-04-07T04:46:01.581Z,82.8
2019-04-07T04:47:03.000Z,82.92
2019-04-07T04:48:00.830Z,82.96
2019-04-07T04:49:00.853Z,82.9
2019-04-07T04:50:02.709Z,82.79
2019-04-07T04:51:00.876Z,83.16
2019-04-07T04:52:00.960Z,83.07
2019-04-07T04:53:00.793Z,82.9
2019-04-07T04:54:02.041Z,83.18
2019-04-07T04:55:02.271Z,83.25
2019-04-07T04:56:01.245Z,83.03
2019-04-07T04:57:09.455Z,82.84
2019-04-07T04:58:00.840Z,82.82
2019-04-07T04:59:01.065Z,82.87
2019-04-07T05:00:02.396Z,83.07
2019-04-07T05:01:04.450Z,82.7
2019-04-07T05:02:01.299Z,82.74
2019-04-07T05:03:01.171Z,82.9
2019-04-07T05:04:00.792Z,82.95
2019-04-07T05:05:03.893Z,82.64
2019-04-07T05:06:02.549Z,82.6
2019-04-07T05:07:01.640Z,82.42
2019-04-07T05:08:06.916Z,82.5
2019-04-07T05:09:02.245Z,82.7
2019-04-07T05:10:01.738Z,82.45
2019-04-07T05:11:01.884Z,82.32
2019-04-07T05:12:00.859Z,82.64
2019-04-07T05:13:01.464Z,82.9
2019-04-07T05:14:00.967Z,83.04
2019-04-07T05:15:01.896Z,82.73
2019-04-07T05:16:01.261Z,82.58
2019-04-07T05:17:01.282Z,82.91
2019-04-07T05:18:01.815Z,82.74
2019-04-07T05:19:00.884Z,83.12
2019-04-07T05:20:01.311Z,82.99
2019-04-07T05:21:00.889Z,82.93
2019-04-07T05:22:01.554Z,83.07
2019-04-07T05:23:01.114Z,83.18
2019-04-07T05:24:01.529Z,83.16
2019-04-07T05:25:01.052Z,83.06
2019-04-07T05:26:00.847Z,82.99
2019-04-07T05:27:01.139Z,83.04
2019-04-07T05:28:01.348Z,83.1
2019-04-07T05:29:01.530Z,83.04
2019-04-07T05:30:01.372Z,83.23
2019-04-07T05:31:00.801Z,83.31
2019-04-07T05:32:01.849Z,83.32
2019-04-07T05:33:01.071Z,83.29
2019-04-07T05:34:00.911Z,83.13
2019-04-07T05:35:01.194Z,83.11
2019-04-07T05:36:00.925Z,83.2
2019-04-07T05:37:02.358Z,83.47
2019-04-07T05:38:08.368Z,83.42
2019-04-07T05:39:01.121Z,83.43
2019-04-07T05:40:04.868Z,83.06
2019-04-07T05:41:00.776Z,83.23
2019-04-07T05:42:01.470Z,82.96
2019-04-07T05:43:02.127Z,82.85
2019-04-07T05:44:01.473Z,83.19
2019-04-07T05:45:00.883Z,83.05
2019-04-07T05:46:00.944Z,83.28
2019-04-07T05:47:00.858Z,83.27
2019-04-07T05:48:00.793Z,83.09
2019-04-07T05:49:00.917Z,82.87
2019-04-07T05:50:06.316Z,82.88
2019-04-07T05:51:01.299Z,82.96
2019-04-07T05:52:06.890Z,83.21
2019-04-07T05:53:00.717Z,83.19
2019-04-07T05:54:01.431Z,83.05
2019-04-07T05:55:01.449Z,83.3
2019-04-07T05:56:01.234Z,82.96
2019-04-07T05:57:02.746Z,82.83
2019-04-07T05:58:08.569Z,83.08
2019-04-07T05:59:01.966Z,82.68
2019-04-07T06:00:01.541Z,83.04
2019-04-07T06:01:00.732Z,83
2019-04-07T06:02:04.299Z,82.83
2019-04-07T06:03:09.508Z,82.86
2019-04-07T06:04:02.684Z,82.91
2019-04-07T06:05:01.386Z,82.97
2019-04-07T06:06:00.846Z,82.79
2019-04-07T06:07:00.819Z,82.82
2019-04-07T06:08:38.799Z,82.87
2019-04-07T06:09:00.814Z,82.64
2019-04-07T06:10:01.240Z,83.07
2019-04-07T06:11:02.576Z,82.8
2019-04-07T06:12:10.590Z,82.55
2019-04-07T06:13:00.727Z,82.84
2019-04-07T06:14:00.996Z,82.63
2019-04-07T06:15:00.734Z,83.15
2019-04-07T06:16:00.747Z,83.35
2019-04-07T06:17:01.072Z,83.27
2019-04-07T06:18:02.697Z,83.45
2019-04-07T06:19:09.039Z,83.45
2019-04-07T06:20:01.617Z,83.21
2019-04-07T06:21:01.114Z,82.88
2019-04-07T06:22:01.680Z,82.54
2019-04-07T06:23:00.693Z,82.53
2019-04-07T06:24:00.918Z,82.52
2019-04-07T06:25:06.789Z,82.38
2019-04-07T06:26:00.757Z,82.59
2019-04-07T06:27:00.980Z,82.78
2019-04-07T06:28:00.666Z,82.61
2019-04-07T06:29:01.704Z,82.3
2019-04-07T06:30:01.077Z,82.18
2019-04-07T06:31:03.364Z,82.34
2019-04-07T06:32:10.505Z,82.24
2019-04-07T06:33:01.757Z,82.17
2019-04-07T06:34:00.767Z,82.07
2019-04-07T06:35:01.965Z,82.08
2019-04-07T06:36:00.692Z,82.01
2019-04-07T06:37:00.754Z,82.31
2019-04-07T06:38:09.059Z,82.17
2019-04-07T06:39:01.616Z,82.29
2019-04-07T06:40:01.388Z,82.17
2019-04-07T06:41:03.502Z,82.11
2019-04-07T06:42:03.582Z,82.07
2019-04-07T06:43:07.487Z,82.09
2019-04-07T06:44:21.958Z,81.95
2019-04-07T06:45:01.914Z,82.05
2019-04-07T06:46:00.634Z,82.28
2019-04-07T06:47:04.767Z,82.07
2019-04-07T06:48:10.116Z,82.11
2019-04-07T06:49:01.511Z,82.02
2019-04-07T06:50:00.811Z,82.39
2019-04-07T06:51:02.832Z,82.49
2019-04-07T06:52:04.972Z,82.51
2019-04-07T06:53:00.768Z,82.18
2019-04-07T06:54:02.438Z,82.48
2019-04-07T06:55:00.655Z,82.63
2019-04-07T06:56:06.103Z,82.46
2019-04-07T06:57:06.547Z,82.45
2019-04-07T06:58:02.203Z,82.41
2019-04-07T06:59:00.810Z,82.32
2019-04-07T07:00:01.172Z,82.2
2019-04-07T07:01:03.535Z,82.23
2019-04-07T07:02:00.805Z,82.26
2019-04-07T07:03:04.520Z,82.13
2019-04-07T07:04:01.946Z,81.88
2019-04-07T07:05:00.637Z,81.87
2019-04-07T07:06:01.446Z,81.68
2019-04-07T07:07:01.149Z,81.58
2019-04-07T07:08:01.011Z,81.48
2019-04-07T07:09:00.998Z,81.46
2019-04-07T07:10:06.644Z,81.44
2019-04-07T07:11:01.118Z,81.47
2019-04-07T07:12:01.777Z,81.86
2019-04-07T07:13:28.274Z,81.98
2019-04-07T07:14:00.674Z,81.75
2019-04-07T07:15:04.783Z,82.01
2019-04-07T07:16:03.789Z,81.61
2019-04-07T07:17:00.622Z,81.29
2019-04-07T07:18:00.661Z,81.03
2019-04-07T07:19:02.576Z,80.91
2019-04-07T07:20:06.842Z,80.87
2019-04-07T07:21:05.164Z,80.86
2019-04-07T07:22:01.400Z,80.93
2019-04-07T07:23:00.873Z,80.8
2019-04-07T07:24:01.416Z,80.62
2019-04-07T07:25:01.544Z,80.57
2019-04-07T07:26:04.348Z,80.58
2019-04-07T07:27:12.337Z,80.56
2019-04-07T07:28:01.768Z,80.51
2019-04-07T07:29:01.039Z,80.5
2019-04-07T07:30:01.374Z,80.35
2019-04-07T07:31:01.067Z,80.25
2019-04-07T07:32:05.030Z,79.95
2019-04-07T07:33:00.842Z,80.02
2019-04-07T07:34:00.660Z,80.09
2019-04-07T07:35:00.629Z,80.32
2019-04-07T07:36:01.406Z,80.4
2019-04-07T07:37:00.652Z,80.51
2019-04-07T07:38:00.583Z,80.3
2019-04-07T07:39:13.389Z,80.28
2019-04-07T07:40:03.903Z,80.11
2019-04-07T07:41:04.892Z,80.03
2019-04-07T07:42:00.576Z,80.08
2019-04-07T07:43:00.643Z,80.07
2019-04-07T07:44:09.477Z,79.97
2019-04-07T07:45:01.554Z,80.16
2019-04-07T07:46:00.581Z,80.09
2019-04-07T07:47:00.660Z,79.96
2019-04-07T07:48:01.106Z,78.8
2019-04-07T07:49:02.320Z,79.21
2019-04-07T07:50:08.921Z,79.1
2019-04-07T07:51:01.385Z,78.8
2019-04-07T07:52:01.514Z,78.72
2019-04-07T07:53:01.512Z,78.68
2019-04-07T07:54:02.246Z,78.61
2019-04-07T07:55:04.009Z,77.82
2019-04-07T07:56:02.065Z,77.84
2019-04-07T07:57:02.506Z,77.35
2019-04-07T07:58:01.224Z,77
2019-04-07T07:59:04.377Z,75.87
2019-04-07T08:00:08.125Z,75.65
2019-04-07T08:01:01.583Z,75.79
2019-04-07T08:02:03.253Z,75.55
2019-04-07T08:03:00.807Z,77.22
2019-04-07T08:04:00.923Z,76.72
2019-04-07T08:05:00.768Z,76.22
2019-04-07T08:06:08.526Z,76.05
2019-04-07T08:07:02.812Z,75.35
2019-04-07T08:08:01.890Z,74.9
2019-04-07T08:09:23.065Z,74.39
2019-04-07T08:10:03.112Z,74.44
2019-04-07T08:11:02.931Z,74.14
2019-04-07T08:12:03.876Z,73.8
2019-04-07T08:13:09.090Z,73.18
2019-04-07T08:14:01.345Z,73.73
2019-04-07T08:15:00.570Z,73.12
2019-04-07T08:16:00.639Z,72.36
2019-04-07T08:17:04.218Z,72.57
2019-04-07T08:18:09.814Z,72.87
2019-04-07T08:19:01.615Z,73.4
2019-04-07T08:20:01.280Z,73.05
2019-04-07T08:21:00.538Z,73
2019-04-07T08:22:01.750Z,72.53
2019-04-07T08:23:00.820Z,72.39
2019-04-07T08:24:01.537Z,71.75
2019-04-07T08:25:02.312Z,71.76
2019-04-07T08:26:00.614Z,71.98
2019-04-07T08:27:00.531Z,73.22
2019-04-07T08:28:04.908Z,73.37
2019-04-07T08:29:10.637Z,72.17
2019-04-07T08:30:04.787Z,71.16
2019-04-07T08:31:00.976Z,72.71
2019-04-07T08:32:00.795Z,73.3
2019-04-07T08:33:03.658Z,73.1
2019-04-07T08:34:02.584Z,72.27
2019-04-07T08:35:06.686Z,72.02
2019-04-07T08:36:00.709Z,71.17
2019-04-07T08:37:01.459Z,71.69
2019-04-07T08:38:01.419Z,72.16
2019-04-07T08:39:00.798Z,72.31
2019-04-07T08:40:08.153Z,71.56
2019-04-07T08:41:09.615Z,70.66
2019-04-07T08:42:01.442Z,71.33
2019-04-07T08:43:01.294Z,72.14
2019-04-07T08:44:00.567Z,69.56
2019-04-07T08:45:03.501Z,70.63
2019-04-07T08:46:06.354Z,70.5
2019-04-07T08:47:02.556Z,70.17
2019-04-07T08:48:00.944Z,70.58
2019-04-07T08:49:00.546Z,71.38
2019-04-07T08:50:00.506Z,71.02
2019-04-07T08:51:01.229Z,69.51
2019-04-07T08:52:12.424Z,68.51
2019-04-07T08:53:00.483Z,69.66
2019-04-07T08:54:00.534Z,69.16
2019-04-07T08:55:00.513Z,69.86
2019-04-07T08:56:00.581Z,69.28
2019-04-07T08:57:00.729Z,69.28
2019-04-07T08:58:06.695Z,68.6
2019-04-07T08:59:00.466Z,69.29
2019-04-07T09:00:00.597Z,69.33
2019-04-07T09:01:00.485Z,68.87
2019-04-07T09:02:00.537Z,68.61
2019-04-07T09:03:16.033Z,68.12
2019-04-07T09:04:01.393Z,68.79
2019-04-07T09:05:02.761Z,68.74
2019-04-07T09:06:01.194Z,68.97
2019-04-07T09:07:05.243Z,68.92
2019-04-07T09:08:07.461Z,68.8
2019-04-07T09:09:00.613Z,69.31
2019-04-07T09:10:01.207Z,68.79
2019-04-07T09:11:00.575Z,68.22
2019-04-07T09:12:01.610Z,68.51
2019-04-07T09:13:10.393Z,68.38
2019-04-07T09:14:00.486Z,67.67
2019-04-07T09:15:09.028Z,67.61
2019-04-07T09:16:00.449Z,67.15
2019-04-07T09:17:00.505Z,67.34
2019-04-07T09:18:01.058Z,67.07
2019-04-07T09:19:09.474Z,68.51
2019-04-07T09:20:09.419Z,68.53
2019-04-07T09:21:00.969Z,66.84
2019-04-07T09:22:00.771Z,67.35
2019-04-07T09:23:00.697Z,68.2
2019-04-07T09:24:00.472Z,66.72
2019-04-07T09:25:09.800Z,66.65
2019-04-07T09:26:00.443Z,66.15
2019-04-07T09:27:01.243Z,65.72
2019-04-07T09:28:01.135Z,66.64
2019-04-07T09:29:00.921Z,67.05
2019-04-07T09:30:02.686Z,67.6
2019-04-07T09:31:04.741Z,65.82
2019-04-07T09:32:00.467Z,65.66
2019-04-07T09:33:01.445Z,66.58
2019-04-07T09:34:00.501Z,66.5
2019-04-07T09:35:00.800Z,66.07
2019-04-07T09:36:00.796Z,66.54
2019-04-07T09:37:00.567Z,67.05
2019-04-07T09:38:00.560Z,67.92
2019-04-07T09:39:04.256Z,67.95
2019-04-07T09:40:06.709Z,67.09
2019-04-07T09:41:00.699Z,66.48
2019-04-07T09:42:01.068Z,66.62
2019-04-07T09:43:01.457Z,66.85
2019-04-07T09:44:04.978Z,65.12
2019-04-07T09:45:00.581Z,65.06
2019-04-07T09:46:00.452Z,65.77
2019-04-07T09:47:00.947Z,66.04
2019-04-07T09:48:00.745Z,66.69
2019-04-07T09:49:02.135Z,67.68
2019-04-07T09:50:03.483Z,68.12
2019-04-07T09:51:08.696Z,68.02
2019-04-07T09:52:01.188Z,68.22
2019-04-07T09:53:01.326Z,68.4
2019-04-07T09:54:00.468Z,67.82
2019-04-07T09:55:01.360Z,67.61
2019-04-07T09:56:03.613Z,68.24
2019-04-07T09:57:07.473Z,68.5
2019-04-07T09:58:01.481Z,68.53
2019-04-07T09:59:00.439Z,68.73
2019-04-07T10:00:00.610Z,68.86
2019-04-07T10:01:00.422Z,69.72
2019-04-07T10:02:06.663Z,67.94
2019-04-07T10:03:14.953Z,68.18
2019-04-07T10:04:00.419Z,68.42
2019-04-07T10:05:00.426Z,68.05
2019-04-07T10:06:00.910Z,68.34
2019-04-07T10:07:03.768Z,68.49
2019-04-07T10:08:00.496Z,68.81
2019-04-07T10:09:01.165Z,67.92
2019-04-07T10:10:15.045Z,67.89
2019-04-07T10:11:00.812Z,67.44
2019-04-07T10:12:00.521Z,67.39
2019-04-07T10:13:00.787Z,66.68
2019-04-07T10:14:01.321Z,65.34
2019-04-07T10:15:00.411Z,65.41
2019-04-07T10:16:01.119Z,65.89
2019-04-07T10:17:01.274Z,65.76
2019-04-07T10:18:00.626Z,65.45
2019-04-07T10:19:00.830Z,66.08
2019-04-07T10:20:01.075Z,66.24
2019-04-07T10:21:01.682Z,67.32
2019-04-07T10:22:03.652Z,67.35
2019-04-07T10:23:00.841Z,66.97
2019-04-07T10:24:00.891Z,67.04
2019-04-07T10:25:00.482Z,66.97
2019-04-07T10:26:01.344Z,67.39
2019-04-07T10:27:01.504Z,67.52
2019-04-07T10:28:00.714Z,67.16
2019-04-07T10:29:00.718Z,66.97
2019-04-07T10:30:00.645Z,67.01
2019-04-07T10:31:00.347Z,66.64
2019-04-07T10:32:01.309Z,66.28
2019-04-07T10:33:02.067Z,66.81
2019-04-07T10:34:00.404Z,66.78
2019-04-07T10:35:01.215Z,66.29
2019-04-07T10:36:00.375Z,66.25
2019-04-07T10:37:05.138Z,66.17
2019-04-07T10:38:02.104Z,66.05
2019-04-07T10:39:00.936Z,65.69
2019-04-07T10:40:03.262Z,65.56
2019-04-07T10:41:01.132Z,65.28
2019-04-07T10:42:00.386Z,65.35
2019-04-07T10:43:01.497Z,65.9
2019-04-07T10:44:01.793Z,65.46
2019-04-07T10:45:00.696Z,64.9
2019-04-07T10:46:00.443Z,63.4
2019-04-07T10:47:00.550Z,63.62
2019-04-07T10:48:01.456Z,63.69
2019-04-07T10:49:00.458Z,63.79
2019-04-07T10:50:09.023Z,64.28
2019-04-07T10:51:00.379Z,64.95
2019-04-07T10:52:01.235Z,64.94
2019-04-07T10:53:00.444Z,65.11
2019-04-07T10:54:00.369Z,64.46
2019-04-07T10:55:01.266Z,64.88
2019-04-07T10:56:01.236Z,63.78
2019-04-07T10:57:01.125Z,63.76
2019-04-07T10:58:00.414Z,64.55
2019-04-07T10:59:00.368Z,64.71
2019-04-07T11:00:01.477Z,64.7
2019-04-07T11:01:01.046Z,64.41
2019-04-07T11:02:01.430Z,63.84
2019-04-07T11:03:00.974Z,63.88
2019-04-07T11:04:00.356Z,64.25
2019-04-07T11:05:00.758Z,64.12
2019-04-07T11:06:00.521Z,63.77
2019-04-07T11:07:00.337Z,64.07
2019-04-07T11:08:00.562Z,63.32
2019-04-07T11:09:00.355Z,64.1
2019-04-07T11:10:01.342Z,63.93
2019-04-07T11:11:00.334Z,64.39
2019-04-07T11:12:00.305Z,63.88
2019-04-07T11:13:01.602Z,63.89
2019-04-07T11:14:01.062Z,63.78
2019-04-07T11:15:01.094Z,64.11
2019-04-07T11:16:00.524Z,62.69
2019-04-07T11:17:02.555Z,62.83
2019-04-07T11:18:01.832Z,63.91
2019-04-07T11:19:00.346Z,63.73
2019-04-07T11:20:00.342Z,63.61
2019-04-07T11:21:02.332Z,63.57
2019-04-07T11:22:01.277Z,63.62
2019-04-07T11:23:02.054Z,63.77
2019-04-07T11:24:01.358Z,62.59
2019-04-07T11:25:01.230Z,61.79
2019-04-07T11:26:00.713Z,61.88
2019-04-07T11:27:00.353Z,62.38
2019-04-07T11:28:00.297Z,61.87
2019-04-07T11:29:00.302Z,61.72
2019-04-07T11:30:00.474Z,61.4
2019-04-07T11:31:01.347Z,60.25
2019-04-07T11:32:00.504Z,60.8
2019-04-07T11:33:01.942Z,59.97
2019-04-07T11:34:00.965Z,60.93
2019-04-07T11:35:00.315Z,59.84
2019-04-07T11:36:04.162Z,59.97
2019-04-07T11:37:00.710Z,61.25
2019-04-07T11:38:00.470Z,60.18
2019-04-07T11:39:00.663Z,60.45
2019-04-07T11:40:01.076Z,59.32
2019-04-07T11:41:00.398Z,59.93
2019-04-07T11:42:01.187Z,59.38
2019-04-07T11:43:00.648Z,59.77
2019-04-07T11:44:01.910Z,59.75
2019-04-07T11:45:00.331Z,60.17
2019-04-07T11:46:03.579Z,60.14
2019-04-07T11:47:02.062Z,58.85
2019-04-07T11:48:00.289Z,59.06
2019-04-07T11:49:00.969Z,59.3
2019-04-07T11:50:00.430Z,57.61
2019-04-07T11:51:00.262Z,57.85
2019-04-07T11:52:00.336Z,58.46
2019-04-07T11:53:00.715Z,57.65
2019-04-07T11:54:01.754Z,56.89
2019-04-07T11:55:01.984Z,57.04
2019-04-07T11:56:11.529Z,56.86
2019-04-07T11:57:01.006Z,57.44
2019-04-07T11:58:29.753Z,57.67
2019-04-07T11:59:01.304Z,56.34
2019-04-07T12:00:02.338Z,56.73
2019-04-07T12:01:00.322Z,57.51
2019-04-07T12:02:03.503Z,56.57
2019-04-07T12:03:00.947Z,56.82
2019-04-07T12:04:02.640Z,54.63
2019-04-07T12:05:00.375Z,56.4
2019-04-07T12:06:02.489Z,55.5
2019-04-07T12:07:00.344Z,55.03
2019-04-07T12:08:02.013Z,55.51
2019-04-07T12:09:00.421Z,54.99
2019-04-07T12:10:00.313Z,55.66
2019-04-07T12:11:06.699Z,56.29
2019-04-07T12:12:00.330Z,55.77
2019-04-07T12:13:00.488Z,55.21
2019-04-07T12:14:01.180Z,55.64
2019-04-07T12:15:00.336Z,56.05
2019-04-07T12:16:02.155Z,56.11
2019-04-07T12:17:10.481Z,56.11
2019-04-07T12:18:00.562Z,56
2019-04-07T12:19:00.515Z,55.57
2019-04-07T12:20:00.502Z,57.16
2019-04-07T12:21:08.706Z,57.56
2019-04-07T12:22:02.073Z,57.16
2019-04-07T12:23:00.516Z,57.96
2019-04-07T12:24:00.810Z,57.11
2019-04-07T12:25:06.772Z,56.2
2019-04-07T12:26:07.507Z,56.85
2019-04-07T12:27:02.103Z,56.85
2019-04-07T12:28:00.280Z,55.43
2019-04-07T12:29:01.582Z,55.55
2019-04-07T12:30:02.137Z,56.1
2019-04-07T12:31:00.246Z,54.76
2019-04-07T12:32:00.851Z,54.02
2019-04-07T12:33:00.325Z,54.46
2019-04-07T12:34:00.316Z,54.45
2019-04-07T12:35:01.228Z,52.69
2019-04-07T12:36:00.293Z,53.76
2019-04-07T12:37:07.989Z,52.71
2019-04-07T12:38:00.506Z,53.83
2019-04-07T12:39:00.260Z,53.86
2019-04-07T12:40:01.458Z,54.07
2019-04-07T12:41:23.321Z,53.51
2019-04-07T12:42:08.728Z,53.4
2019-04-07T12:43:00.356Z,53.69
2019-04-07T12:44:01.722Z,52.99
2019-04-07T12:45:00.308Z,53.41
2019-04-07T12:46:01.296Z,53.72
2019-04-07T12:47:00.276Z,53.13
2019-04-07T12:48:01.582Z,52.83
2019-04-07T12:49:00.346Z,52.25
2019-04-07T12:50:00.291Z,52.41
2019-04-07T12:51:00.983Z,51.73
2019-04-07T12:52:00.355Z,52.56
2019-04-07T12:53:06.914Z,51.63
2019-04-07T12:54:00.430Z,52.37
2019-04-07T12:55:00.595Z,52.54